x

Cape Cleare - 17 Nm South Of Montague Is, Ak (46076) Weather Station

3:50am - Sat 23rd Aug 2014 All times are AKDT. -8 hours from GMT.

  • Wind
    2mph, 7mph gusts
  • Sea Temp 57°f
  • Air Temp 55°f
  • Sea Pressure 1023.7mb
  • Cape Cleare - 17 Nm South Of Montague Is,  Ak
  • Cape Cleare - 17 Nm South Of Montague Is,  Ak

More Historic Weather Station data

Upgrade to MSW Pro to gain access to the past 30 days of data for over 8000 Wavebouys and Weather Stations around the globe.

Join Pro

Comparision Forecast

View Surf forecast
   
Sat 08/23 3:50am  -   -   -  2 7 mph 1023.7mb 57f 55f
2:50am  -   -   -  7
mph
1023.9mb 57f 55f
1:50am  -   -   -  4 7 mph 1023.9mb 57f 55f
12:50am  -   -   -  4 7 mph 1023.7mb 57f 56f
Fri 08/22 11:50pm  -   -   -  7
mph
1023.6mb 57f 56f
10:50pm  -   -   -  4 7 mph 1023.6mb 57f 56f
9:50pm  -   -   -  2 4 mph 1023.4mb 57f 56f
8:50pm  -   -   -  2 4 mph 1023mb 58f 56f
7:50pm  -   -   -  2 4 mph 1023.4mb 58f 56f
6:50pm  -   -   -  4
mph
- - -
5:50pm  -   -   -  2 4 mph 1023.1mb 58f 56f
4:50pm  -   -   -  4 7 mph 1023.2mb 58f 56f
3:50pm  -   -   -  2 4 mph 1023.2mb 58f 56f
2:50pm  -   -   -  9 11 mph 1023.2mb 58f 56f
1:50pm  -   -   -  4
mph
1023.3mb 57f 56f
12:50pm  -   -   -  2 4 mph 1023.1mb 57f 57f
11:50am  -   -   -   -  2 mph 1022.8mb 57f 57f
10:50am 2.5ft 15s 6s 2 4 mph 1022.7mb 57f 56f
9:50am 2.5ft 15s 6s 4
mph
1022.7mb 57f 55f
8:50am  -   -   -   -  mph 1022.5mb 56f 55f
7:50am 2.5ft 7s 6s  -  2 mph 1022.4mb 57f 55f
5:50am 2.5ft 15s 7s 4
mph
1022.8mb 56f 54f
4:50am  -   -   -  2
mph
- - -
3:50am  -   -   -  9 11 mph 1022.7mb 56f 54f
2:50am  -   -   -  7 9 mph 1023.1mb 56f 53f
1:50am  -   -   -  11 13 mph 1022.9mb 57f 54f
12:50am  -   -   -  7 9 mph 1022.7mb 57f 55f
Thu 08/21 11:50pm  -   -   -  4 7 mph 1022.5mb 57f 55f
10:50pm  -   -   -  7 9 mph 1022.4mb 57f 55f
9:50pm  -   -   -  9 11 mph 1022.4mb 57f 55f
8:50pm  -   -   -  11 13 mph 1022.5mb 57f 55f
7:50pm  -   -   -  9 11 mph 1022.6mb 57f 55f
6:50pm  -   -   -  9 11 mph 1022.6mb 57f 55f
5:50pm  -   -   -  9 11 mph 1022.7mb 57f 55f
4:50pm  -   -   -  7 11 mph 1022.8mb 57f 54f
3:50pm  -   -   -  7 9 mph 1022.9mb 57f 55f
2:50pm  -   -   -  7
mph
1022.9mb 57f 54f
1:50pm  -   -   -  7 9 mph 1022.9mb 57f 55f
12:50pm  -   -   -  7 9 mph 1022.4mb 57f 55f
11:50am 2ft 13s 5s 7
mph
1022.3mb 57f 55f
10:50am 2ft 14s 5s 4 9 mph 1022.1mb 57f 54f
9:50am  -   -   -  2 7 mph 1021.7mb 56f 54f
8:50am 2.5ft 14s 5s 4 7 mph 1021.7mb 57f 54f
7:50am 2ft 7s 4s 7 11 mph 1021.8mb 57f 54f
6:50am  -   -   -  9 11 mph 1021.4mb 57f 55f
5:50am  -   -   -  9 13 mph 1021.3mb 57f 55f
3:50am  -   -   -  11
mph
- - 56f
2:50am  -   -   -  11 13 mph 1020.6mb 57f 55f
1:50am  -   -   -  13 16 mph 1020.4mb 57f 55f
12:50am  -   -   -  11 16 mph 1020.2mb 57f 55f
Wed 08/20 11:50pm  -   -   -  13 16 mph 1020mb 57f 54f
10:50pm  -   -   -  11 13 mph 1019.8mb 57f 54f
9:50pm  -   -   -  11 13 mph 1019.4mb 57f 54f
8:50pm  -   -   -  11 13 mph 1019.2mb 57f 55f
7:50pm  -   -   -  11 13 mph 1019.2mb 57f 55f
6:50pm 2ft 14s 5s 11 13 mph 1019.1mb 57f 56f
5:50pm  -   -   -  11 13 mph 1019.1mb 57f 55f
4:50pm  -   -   -  11 13 mph 1019.3mb 58f 56f
1:50pm  -   -   -  7
mph
- - -
12:50pm 2.5ft 12s 7s 7 9 mph 1018.9mb 57f 55f
11:50am  -   -   -  9 11 mph 1018.6mb 57f 55f
10:50am  -   -   -  7
mph
1018.4mb 56f 55f
9:50am  -   -   -  7
mph
1018.2mb 56f 55f
8:50am 2.5ft 9s 7s 4 7 mph 1018.1mb 56f 55f
7:50am 2.5ft 14s 7s  -  2 mph 1017.9mb 56f 54f
6:50am  -   -   -  2
mph
1017.7mb 56f 54f
5:50am  -   -   -  2
mph
1017.5mb 57f 54f
4:50am  -   -   -   -  mph 1017.2mb 57f 54f
3:50am  -   -   -   -  2 mph 1017.2mb 57f 54f
2:50am  -   -   -  2 4 mph 1017.3mb 57f 54f
12:50am  -   -   -  9 11 mph 1016.8mb 57f 54f
Tue 08/19 11:50pm  -   -   -  9 11 mph 1016.4mb 57f 54f
10:50pm  -   -   -  4 7 mph 1016.1mb 57f 54f
9:50pm  -   -   -  7 9 mph 1015.9mb 57f 55f
8:50pm  -   -   -  2 4 mph 1015.9mb 56f 54f
7:50pm  -   -   -  2 7 mph 1016mb 56f 55f
6:50pm  -   -   -  7 11 mph 1016.1mb 56f 55f
5:50pm  -   -   -  9 11 mph 1016mb 57f 54f
4:50pm  -   -   -  7 9 mph 1016.1mb 56f 55f
3:50pm  -   -   -  11 13 mph 1016.4mb 56f 55f
2:50pm  -   -   -  7 13 mph 1016.6mb 56f 54f